Time;durP1;ratioP1;P1;durP2;ratioP2;P2;SDS_P1;SDS_P2;PMS_P1;PMS_P2;Temp;Humidity;BMP_temperature;BMP_pressure;BME280_temperature;BME280_humidity;BME280_pressure;Samples;Min_cycle;Max_cycle;Signal;HPM_P1;HPM_P2
2022/12/04 00:03:25;;;;;;;13.10;5.45;;;4.10;99.90;;;;;;10136798;28;20024;-59
2022/12/04 00:08:15;;;;;;;14.32;6.60;;;4.10;99.90;;;;;;10137906;28;20387;-59
2022/12/04 00:13:06;;;;;;;12.40;5.53;;;4.10;99.90;;;;;;10135515;28;20364;-59
2022/12/04 00:17:57;;;;;;;13.35;6.03;;;4.00;99.90;;;;;;10134212;28;20097;-59
2022/12/04 00:22:48;;;;;;;11.00;5.55;;;4.20;99.90;;;;;;10139513;28;20017;-59
2022/12/04 00:27:38;;;;;;;11.43;5.60;;;4.20;99.90;;;;;;10141761;28;20331;-59
2022/12/04 00:32:29;;;;;;;15.02;6.22;;;4.30;99.90;;;;;;10143447;28;20020;-60
2022/12/04 00:37:19;;;;;;;13.00;6.60;;;4.10;99.90;;;;;;10144388;28;20025;-59
2022/12/04 00:42:10;;;;;;;11.63;5.63;;;4.20;99.90;;;;;;10141833;28;20442;-60
2022/12/04 00:47:01;;;;;;;10.40;5.20;;;4.00;99.90;;;;;;10122841;28;20090;-59
2022/12/04 00:51:51;;;;;;;16.17;6.13;;;4.10;99.90;;;;;;10141178;28;20112;-58
2022/12/04 00:56:42;;;;;;;12.63;5.68;;;4.20;99.90;;;;;;10140154;28;20105;-59
2022/12/04 01:01:32;;;;;;;16.30;5.72;;;4.20;99.90;;;;;;10136197;28;20097;-59
2022/12/04 01:06:25;;;;;;;12.35;6.07;;;4.30;99.90;;;;;;10144873;28;20040;-59
2022/12/04 01:11:17;;;;;;;13.85;5.53;;;4.20;99.90;;;;;;10142697;28;20078;-60
2022/12/04 01:16:13;;;;;;;11.27;5.15;;;4.10;99.90;;;;;;10139248;28;20032;-59
2022/12/04 01:21:04;;;;;;;;;;;4.00;99.90;;;;;;10140670;28;20052;-57
2022/12/04 01:25:57;;;;;;;11.80;4.75;;;3.90;99.90;;;;;;10141315;28;19978;-58
2022/12/04 01:31:06;;;;;;;13.38;5.20;;;4.10;99.90;;;;;;10138449;28;20024;-57
2022/12/04 01:35:59;;;;;;;13.57;5.65;;;4.20;99.90;;;;;;10139699;28;20287;-60
2022/12/04 01:40:50;;;;;;;13.63;6.65;;;4.10;99.90;;;;;;10142598;28;20024;-60
2022/12/04 01:45:53;;;;;;;15.80;6.40;;;4.10;99.90;;;;;;10149489;28;20024;-59
2022/12/04 01:50:46;;;;;;;12.13;5.70;;;4.10;99.90;;;;;;10136422;28;20032;-59
2022/12/04 01:55:38;;;;;;;13.68;6.40;;;4.20;99.90;;;;;;10138821;28;20046;-59
2022/12/04 02:00:29;;;;;;;15.93;6.50;;;4.30;99.90;;;;;;10138193;28;20441;-59
2022/12/04 02:05:21;;;;;;;11.85;6.30;;;4.30;99.90;;;;;;10137652;28;20085;-60
2022/12/04 02:10:13;;;;;;;14.98;6.43;;;4.20;99.90;;;;;;10138333;28;20131;-59
2022/12/04 02:15:22;;;;;;;14.70;6.43;;;4.20;99.90;;;;;;10137918;28;20482;-57
2022/12/04 02:20:25;;;;;;;11.63;5.82;;;4.30;99.90;;;;;;10135861;28;20398;-58
2022/12/04 02:25:43;;;;;;;12.48;6.07;;;4.20;99.90;;;;;;10137712;28;20119;-61
2022/12/04 02:30:39;;;;;;;13.00;5.63;;;4.20;99.90;;;;;;10127475;28;20032;-59
2022/12/04 02:35:39;;;;;;;15.60;6.93;;;4.10;99.90;;;;;;10119450;28;20562;-60
2022/12/04 02:40:59;;;;;;;13.93;6.97;;;4.10;99.90;;;;;;10140176;28;20017;-60
2022/12/04 02:46:12;;;;;;;13.90;5.55;;;4.10;99.90;;;;;;10138223;28;20040;-60
2022/12/04 02:51:05;;;;;;;15.25;6.63;;;4.10;99.90;;;;;;10138301;28;20028;-61
2022/12/04 02:56:05;;;;;;;16.00;7.05;;;4.10;99.90;;;;;;10136519;28;20135;-61
2022/12/04 03:00:59;;;;;;;13.02;6.22;;;4.20;99.90;;;;;;10133183;28;20450;-61
2022/12/04 03:06:06;;;;;;;15.68;5.35;;;4.40;99.90;;;;;;10141781;28;20103;-60
2022/12/04 03:10:59;;;;;;;17.65;6.22;;;4.40;99.90;;;;;;10127712;28;20021;-61
2022/12/04 03:15:59;;;;;;;15.00;6.82;;;4.30;99.90;;;;;;10140093;28;20456;-58
2022/12/04 03:20:57;;;;;;;17.83;7.15;;;4.20;99.90;;;;;;10135427;28;20025;-60
2022/12/04 03:25:59;;;;;;;14.80;6.78;;;4.20;99.90;;;;;;10145044;28;20037;-60
2022/12/04 03:30:58;;;;;;;13.68;5.38;;;4.30;99.90;;;;;;10136402;28;20020;-59
2022/12/04 03:35:57;;;;;;;14.77;7.22;;;4.30;99.90;;;;;;10136483;28;20039;-62
2022/12/04 03:40:53;;;;;;;16.27;5.95;;;4.40;99.90;;;;;;10134957;28;20102;-61
2022/12/04 03:45:46;;;;;;;14.18;6.40;;;4.30;99.90;;;;;;10139385;28;20325;-61
2022/12/04 03:50:41;;;;;;;12.77;6.15;;;4.20;99.90;;;;;;10140778;28;20103;-61
2022/12/04 03:55:45;;;;;;;14.25;6.93;;;4.20;99.90;;;;;;10136071;28;20059;-62
2022/12/04 04:00:41;;;;;;;15.02;6.47;;;4.10;99.90;;;;;;10143432;28;20091;-60
2022/12/04 04:05:33;;;;;;;16.50;6.85;;;4.10;99.90;;;;;;10138809;28;20359;-58
2022/12/04 04:10:26;;;;;;;18.63;7.53;;;4.40;99.90;;;;;;10139171;28;20040;-59
2022/12/04 04:25:46;;;;;;;14.85;6.97;;;4.40;99.90;;;;;;10143010;28;20512;-58
2022/12/04 04:30:36;;;;;;;14.55;6.80;;;4.40;99.90;;;;;;10144037;28;20035;-59
2022/12/04 04:35:44;;;;;;;12.23;5.95;;;4.40;99.90;;;;;;10149040;28;20107;-59
2022/12/04 04:40:58;;;;;;;16.15;5.38;;;4.30;99.90;;;;;;10143974;28;20013;-58
2022/12/04 04:45:55;;;;;;;11.88;5.95;;;4.30;99.90;;;;;;10144949;28;20116;-60
2022/12/04 04:50:47;;;;;;;18.60;7.50;;;4.30;99.90;;;;;;10143384;28;20021;-58
2022/12/04 04:55:38;;;;;;;17.23;7.10;;;4.40;99.90;;;;;;10141177;28;20292;-60
2022/12/04 05:00:29;;;;;;;17.60;6.53;;;4.40;99.90;;;;;;10143054;28;20298;-60
2022/12/04 05:05:20;;;;;;;13.00;6.28;;;4.40;99.90;;;;;;10140993;28;20044;-59
2022/12/04 05:10:11;;;;;;;16.65;7.07;;;4.30;99.90;;;;;;10140861;28;20438;-59
2022/12/04 05:15:01;;;;;;;12.82;5.95;;;4.30;99.90;;;;;;10141930;28;20495;-58
2022/12/04 05:19:52;;;;;;;15.48;6.72;;;4.30;99.90;;;;;;10140538;28;20033;-59
2022/12/04 05:24:42;;;;;;;17.50;6.47;;;4.50;99.90;;;;;;10140561;28;20040;-59
2022/12/04 05:29:33;;;;;;;13.63;6.57;;;4.40;99.90;;;;;;10143975;28;20493;-58
2022/12/04 05:34:24;;;;;;;21.58;6.93;;;4.40;99.90;;;;;;10140554;28;20037;-60
2022/12/04 05:39:15;;;;;;;14.32;6.22;;;4.30;99.90;;;;;;10136232;28;20383;-60
2022/12/04 05:44:05;;;;;;;15.32;6.80;;;4.40;99.90;;;;;;10144747;28;20029;-62
2022/12/04 05:48:56;;;;;;;10.02;5.75;;;4.30;99.90;;;;;;10139718;28;20524;-60
2022/12/04 05:53:50;;;;;;;19.75;6.32;;;4.30;99.90;;;;;;10136903;28;20024;-61
2022/12/04 05:58:41;;;;;;;14.18;6.30;;;4.30;99.90;;;;;;10138751;28;20036;-58
2022/12/04 06:03:31;;;;;;;13.68;5.25;;;4.30;99.90;;;;;;10136679;28;20038;-62
2022/12/04 06:08:22;;;;;;;12.63;6.35;;;4.20;99.90;;;;;;10133116;28;20416;-60
2022/12/04 06:13:13;;;;;;;14.93;6.07;;;4.20;99.90;;;;;;10128613;28;20067;-58
2022/12/04 06:18:03;;;;;;;13.23;5.88;;;4.20;99.90;;;;;;10138817;28;20543;-61
2022/12/04 06:22:54;;;;;;;16.05;6.25;;;4.20;99.90;;;;;;10137080;28;20025;-61
2022/12/04 06:27:44;;;;;;;11.38;5.13;;;4.20;99.90;;;;;;10146978;28;20048;-60
2022/12/04 06:32:35;;;;;;;16.02;6.50;;;4.10;99.90;;;;;;10137156;28;20024;-60
2022/12/04 06:37:26;;;;;;;16.88;7.82;;;4.10;99.90;;;;;;10135043;28;20025;-61
2022/12/04 06:42:16;;;;;;;14.70;6.28;;;4.10;99.90;;;;;;10137000;28;20036;-61
2022/12/04 06:47:07;;;;;;;15.15;6.35;;;4.20;99.90;;;;;;10136831;28;20042;-61
2022/12/04 06:51:58;;;;;;;11.05;5.50;;;4.10;99.90;;;;;;10137780;28;20080;-60
2022/12/04 06:56:49;;;;;;;12.38;6.13;;;4.10;99.90;;;;;;10136144;28;20078;-61
2022/12/04 07:01:39;;;;;;;11.63;4.78;;;4.10;99.90;;;;;;10137148;28;20537;-60
2022/12/04 07:06:32;;;;;;;16.30;6.50;;;4.10;99.90;;;;;;10140365;28;20047;-58
2022/12/04 07:11:23;;;;;;;16.88;6.18;;;4.10;99.90;;;;;;10136197;28;20021;-61
2022/12/04 07:16:19;;;;;;;11.88;4.97;;;4.30;99.90;;;;;;10144234;28;20028;-62
2022/12/04 07:21:14;;;;;;;11.07;5.25;;;4.30;99.90;;;;;;10142796;28;20036;-61
2022/12/04 07:26:06;;;;;;;11.02;5.78;;;4.30;99.90;;;;;;10136499;28;20324;-62
2022/12/04 07:30:57;;;;;;;18.77;6.07;;;4.30;99.90;;;;;;10139850;28;20025;-61
2022/12/04 07:35:55;;;;;;;13.23;6.57;;;4.30;99.90;;;;;;10143095;28;20073;-61
2022/12/04 07:40:46;;;;;;;14.43;5.00;;;4.30;99.90;;;;;;10147529;28;20033;-61
2022/12/04 07:45:37;;;;;;;14.23;5.30;;;4.30;99.90;;;;;;10147836;28;20502;-60
2022/12/04 07:50:27;;;;;;;13.57;5.35;;;4.30;99.90;;;;;;10139975;28;20026;-61
2022/12/04 07:55:18;;;;;;;10.27;5.93;;;4.30;99.90;;;;;;10143050;28;20044;-60
2022/12/04 08:00:09;;;;;;;9.82;5.18;;;4.20;99.90;;;;;;10142945;28;20541;-61
2022/12/04 08:05:00;;;;;;;11.43;5.05;;;4.30;99.90;;;;;;10142982;28;20072;-61
2022/12/04 08:09:51;;;;;;;16.73;6.20;;;4.30;99.90;;;;;;10142413;28;20024;-61
2022/12/04 08:14:41;;;;;;;14.20;5.55;;;4.30;99.90;;;;;;10142600;28;20108;-61
2022/12/04 08:19:32;;;;;;;12.40;5.35;;;4.30;99.90;;;;;;10142491;28;20115;-62
2022/12/04 08:24:22;;;;;;;15.18;5.15;;;4.40;99.90;;;;;;10142144;28;20032;-61
2022/12/04 08:29:13;;;;;;;15.15;6.32;;;4.40;99.90;;;;;;10143964;28;20024;-62
2022/12/04 08:34:06;;;;;;;14.88;6.03;;;4.60;99.90;;;;;;10142573;28;20442;-61
2022/12/04 08:38:57;;;;;;;16.65;5.57;;;4.50;99.90;;;;;;10141447;28;20021;-62
2022/12/04 08:43:48;;;;;;;11.63;5.88;;;4.50;99.90;;;;;;10141850;28;20391;-59
2022/12/04 08:48:39;;;;;;;15.18;6.30;;;4.60;99.90;;;;;;10144900;28;20115;-59
2022/12/04 08:53:30;;;;;;;13.07;7.32;;;4.60;99.90;;;;;;10142228;28;20029;-60
2022/12/04 08:58:22;;;;;;;15.30;6.30;;;4.60;99.90;;;;;;10143742;28;20078;-59
2022/12/04 09:03:17;;;;;;;20.35;7.15;;;4.60;99.90;;;;;;10141509;28;20577;-59
2022/12/04 09:08:08;;;;;;;14.23;6.43;;;4.80;99.90;;;;;;10141267;28;20025;-59
2022/12/04 09:12:59;;;;;;;13.98;6.57;;;4.70;99.90;;;;;;10144192;28;20521;-59
2022/12/04 09:17:49;;;;;;;12.30;5.20;;;4.70;99.90;;;;;;10122605;28;20098;-58
2022/12/04 09:22:40;;;;;;;14.27;6.28;;;4.60;99.90;;;;;;10140367;28;20024;-59
2022/12/04 09:27:35;;;;;;;14.27;7.15;;;4.70;99.90;;;;;;10145436;28;20036;-58
2022/12/04 09:32:25;;;;;;;11.52;5.05;;;4.70;99.90;;;;;;10141165;28;20025;-59
2022/12/04 09:37:17;;;;;;;10.35;5.22;;;4.70;99.90;;;;;;10140041;28;20028;-60
2022/12/04 09:42:17;;;;;;;11.40;5.60;;;4.70;99.90;;;;;;10140634;28;20019;-58
2022/12/04 09:47:28;;;;;;;17.58;7.35;;;4.70;99.90;;;;;;10138822;28;20036;-59
2022/12/04 09:52:30;;;;;;;14.27;5.93;;;4.70;99.90;;;;;;10139138;28;20092;-58
2022/12/04 09:57:30;;;;;;;12.13;7.15;;;4.80;99.90;;;;;;10138679;28;20102;-59
2022/12/04 10:02:35;;;;;;;16.75;6.57;;;4.90;99.90;;;;;;10139496;28;20021;-59
2022/12/04 10:07:44;;;;;;;13.97;6.37;;;5.00;99.90;;;;;;10138306;28;20457;-59
2022/12/04 10:13:04;;;;;;;17.95;7.40;;;5.00;99.90;;;;;;10132069;28;20275;-58
2022/12/04 10:18:08;;;;;;;15.95;7.68;;;5.00;99.90;;;;;;10138413;28;20028;-61
2022/12/04 10:23:22;;;;;;;15.88;7.13;;;5.10;99.90;;;;;;10120155;28;20031;-59
2022/12/04 10:28:26;;;;;;;17.10;6.95;;;5.20;99.90;;;;;;10138117;28;20036;-60
2022/12/04 10:33:23;;;;;;;15.50;6.63;;;5.20;99.90;;;;;;10138294;28;20082;-61
2022/12/04 10:38:46;;;;;;;15.65;7.40;;;5.40;99.90;;;;;;10137568;28;20016;-59
2022/12/04 10:43:46;;;;;;;16.45;7.68;;;5.30;99.90;;;;;;10133905;28;20025;-59
2022/12/04 10:48:39;;;;;;;14.38;6.63;;;5.40;99.90;;;;;;10146371;28;20048;-60
2022/12/04 10:53:34;;;;;;;17.83;8.20;;;5.40;99.90;;;;;;10142092;28;20025;-60
2022/12/04 10:58:26;;;;;;;15.43;6.95;;;5.50;99.90;;;;;;10137148;28;20560;-60
2022/12/04 11:03:28;;;;;;;15.10;7.10;;;5.70;99.90;;;;;;10137292;28;20021;-59
2022/12/04 11:08:23;;;;;;;13.55;6.63;;;5.60;99.90;;;;;;10135450;28;20045;-59
2022/12/04 11:13:16;;;;;;;18.67;7.63;;;5.50;99.90;;;;;;10130409;28;20016;-60
2022/12/04 11:18:28;;;;;;;15.18;7.70;;;5.60;99.90;;;;;;10139603;28;20402;-60
2022/12/04 11:23:20;;;;;;;19.85;8.63;;;5.70;99.90;;;;;;10118829;28;20112;-60
2022/12/04 11:28:16;;;;;;;16.83;6.88;;;5.60;99.90;;;;;;10136101;28;20040;-59
2022/12/04 11:33:17;;;;;;;17.42;8.57;;;5.60;99.90;;;;;;10133134;28;20433;-59
2022/12/04 11:38:16;;;;;;;15.52;7.38;;;5.50;99.90;;;;;;10139199;28;20032;-59
2022/12/04 11:43:16;;;;;;;22.52;7.68;;;5.60;99.90;;;;;;10141321;28;20028;-60
2022/12/04 11:48:15;;;;;;;19.27;8.70;;;5.60;99.90;;;;;;10135633;28;20036;-61
2022/12/04 11:53:41;;;;;;;18.65;7.85;;;5.50;99.90;;;;;;10133056;28;20031;-59
2022/12/04 11:58:41;;;;;;;14.25;6.43;;;5.60;99.90;;;;;;10094124;28;20058;-61
2022/12/04 12:03:42;;;;;;;16.98;7.15;;;5.60;99.90;;;;;;10138629;28;20021;-60
2022/12/04 12:09:01;;;;;;;23.48;8.18;;;5.60;99.90;;;;;;10136279;28;20041;-59
2022/12/04 12:13:57;;;;;;;16.45;7.25;;;5.50;99.90;;;;;;10134016;28;20039;-59
2022/12/04 12:18:50;;;;;;;14.17;6.47;;;5.40;99.90;;;;;;10140794;28;20120;-60
2022/12/04 12:24:15;;;;;;;16.83;6.82;;;5.30;99.90;;;;;;10142690;28;20024;-58
2022/12/04 12:29:25;;;;;;;21.88;7.35;;;5.10;99.90;;;;;;10152612;28;20051;-60
2022/12/04 12:34:33;;;;;;;15.77;6.90;;;5.10;99.90;;;;;;10142571;28;20024;-59
2022/12/04 12:39:28;;;;;;;17.77;7.63;;;5.10;99.90;;;;;;10149958;28;20043;-60
2022/12/04 12:44:25;;;;;;;17.63;7.32;;;5.10;99.90;;;;;;10145158;28;20031;-61
2022/12/04 12:49:21;;;;;;;19.90;7.22;;;5.10;99.90;;;;;;10145225;28;20487;-62
2022/12/04 12:54:21;;;;;;;19.67;8.02;;;5.00;99.90;;;;;;10141985;28;20040;-60
2022/12/04 12:59:19;;;;;;;13.18;7.13;;;5.00;99.90;;;;;;10141285;28;20063;-59
2022/12/04 13:04:29;;;;;;;14.95;6.55;;;5.10;99.90;;;;;;10141644;28;20588;-59
2022/12/04 13:09:41;;;;;;;14.18;6.65;;;5.10;99.90;;;;;;10135114;28;20039;-59
2022/12/04 13:14:31;;;;;;;16.77;7.28;;;5.10;99.90;;;;;;10154003;28;20108;-59
2022/12/04 13:19:27;;;;;;;19.10;7.93;;;5.10;99.90;;;;;;10140268;28;20107;-59
2022/12/04 13:24:48;;;;;;;19.85;7.40;;;5.10;99.90;;;;;;10143105;28;20029;-60
2022/12/04 13:30:25;;;;;;;13.70;5.85;;;5.00;99.90;;;;;;10157223;28;20032;-60
2022/12/04 13:35:43;;;;;;;14.27;5.63;;;5.00;99.90;;;;;;10113097;28;20409;-59
2022/12/04 13:40:34;;;;;;;15.18;5.80;;;4.90;99.90;;;;;;10141966;28;20112;-59
2022/12/04 13:45:30;;;;;;;19.27;7.05;;;4.90;99.90;;;;;;10141631;28;20123;-60
2022/12/04 13:50:30;;;;;;;15.88;6.90;;;5.00;99.90;;;;;;10147947;28;20051;-60
2022/12/04 13:55:30;;;;;;;18.88;7.97;;;5.00;99.90;;;;;;10138994;28;20048;-59
2022/12/04 14:00:28;;;;;;;19.73;9.32;;;5.10;99.90;;;;;;10149646;28;20024;-60
2022/12/04 14:05:27;;;;;;;16.27;8.77;;;5.20;99.90;;;;;;10132506;28;20112;-59
2022/12/04 14:10:18;;;;;;;20.98;8.80;;;5.20;99.90;;;;;;10139998;28;20092;-59
2022/12/04 14:15:24;;;;;;;15.13;7.93;;;5.20;99.90;;;;;;10125264;28;20542;-60
2022/12/04 14:20:25;;;;;;;17.98;7.80;;;5.00;99.90;;;;;;10105672;28;20028;-60
2022/12/04 14:25:33;;;;;;;19.27;7.68;;;5.00;99.90;;;;;;10106802;28;20045;-60
2022/12/04 14:30:31;;;;;;;18.90;8.90;;;5.00;99.90;;;;;;10130328;28;20056;-59
2022/12/04 14:35:26;;;;;;;18.88;8.13;;;4.90;99.90;;;;;;10114536;28;20049;-61
2022/12/04 14:40:23;;;;;;;13.90;7.57;;;5.20;99.90;;;;;;10138689;28;20020;-62
2022/12/04 14:45:42;;;;;;;23.88;8.25;;;5.40;99.90;;;;;;10113990;28;20425;-63
2022/12/04 14:50:58;;;;;;;14.50;6.57;;;5.20;99.90;;;;;;10110905;28;20019;-62
2022/12/04 14:56:10;;;;;;;21.27;7.97;;;5.20;99.90;;;;;;10132831;28;20071;-61
2022/12/04 15:01:05;;;;;;;14.40;6.63;;;5.20;99.90;;;;;;10123898;28;20107;-61
2022/12/04 15:06:10;;;;;;;16.40;6.57;;;5.10;99.90;;;;;;10131212;28;20040;-60
2022/12/04 15:16:17;;;;;;;15.95;7.38;;;5.00;99.90;;;;;;10134347;28;20090;-62
2022/12/04 15:21:10;;;;;;;28.35;12.13;;;5.10;99.90;;;;;;10137309;28;20027;-60
2022/12/04 15:26:09;;;;;;;22.63;11.20;;;5.10;99.90;;;;;;10136335;28;20041;-61
2022/12/04 15:31:02;;;;;;;20.08;9.18;;;5.00;99.90;;;;;;10114423;28;20528;-60
2022/12/04 15:36:00;;;;;;;18.80;8.52;;;4.90;99.90;;;;;;10136520;28;20025;-61
2022/12/04 15:41:00;;;;;;;14.45;7.07;;;4.80;99.90;;;;;;10132147;28;20403;-62
2022/12/04 15:45:51;;;;;;;15.88;7.60;;;4.70;99.90;;;;;;10136622;28;20040;-62
2022/12/04 15:50:42;;;;;;;15.25;7.45;;;4.70;99.90;;;;;;10148525;28;20017;-61
2022/12/04 15:55:58;;;;;;;12.45;7.43;;;4.80;99.90;;;;;;10141217;28;20051;-61
2022/12/04 16:00:56;;;;;;;14.23;6.17;;;4.80;99.90;;;;;;10152435;28;20185;-60
2022/12/04 16:05:46;;;;;;;16.25;9.32;;;4.80;99.90;;;;;;10141990;28;20060;-60
2022/12/04 16:10:37;;;;;;;15.38;6.97;;;4.70;99.90;;;;;;10144956;28;20025;-61
2022/12/04 16:15:39;;;;;;;20.40;8.05;;;4.60;99.90;;;;;;10141649;28;20110;-61
2022/12/04 16:20:32;;;;;;;18.88;6.97;;;4.80;99.90;;;;;;10143751;28;20024;-62
2022/12/04 16:25:23;;;;;;;13.60;7.72;;;4.70;99.90;;;;;;10143743;28;20074;-61
2022/12/04 16:30:14;;;;;;;17.15;7.43;;;4.70;99.90;;;;;;10146487;28;20040;-61
2022/12/04 16:35:05;;;;;;;14.93;6.82;;;4.70;99.90;;;;;;10143727;28;20032;-63
2022/12/04 16:39:56;;;;;;;12.98;5.82;;;4.60;99.90;;;;;;10147418;28;20032;-62
2022/12/04 16:44:47;;;;;;;12.95;6.05;;;4.60;99.90;;;;;;10124627;28;20036;-61
2022/12/04 16:49:38;;;;;;;11.35;6.68;;;4.70;99.90;;;;;;10141335;28;20112;-60
2022/12/04 16:54:29;;;;;;;10.50;5.15;;;4.70;99.90;;;;;;10142500;28;20072;-61
2022/12/04 16:59:20;;;;;;;11.50;5.40;;;4.70;99.90;;;;;;10144883;28;20027;-60
2022/12/04 17:04:11;;;;;;;12.45;5.28;;;4.60;99.90;;;;;;10142034;28;20027;-59
2022/12/04 17:09:03;;;;;;;11.45;4.72;;;4.60;99.90;;;;;;10122176;28;20036;-60
2022/12/04 17:13:53;;;;;;;6.55;3.95;;;4.70;99.90;;;;;;10125426;28;20085;-61
2022/12/04 17:18:44;;;;;;;12.85;4.80;;;4.70;99.90;;;;;;10139050;28;20115;-61
2022/12/04 17:23:35;;;;;;;11.38;4.82;;;4.70;99.90;;;;;;10109680;28;20078;-59
2022/12/04 17:28:26;;;;;;;11.75;5.13;;;4.70;99.90;;;;;;10142147;28;20041;-60
2022/12/04 17:33:16;;;;;;;10.27;5.80;;;4.60;99.90;;;;;;10139501;28;20702;-60
2022/12/04 17:38:07;;;;;;;9.65;5.00;;;4.70;99.90;;;;;;10137640;28;20025;-59
2022/12/04 17:42:57;;;;;;;9.68;4.45;;;4.70;99.90;;;;;;10140252;28;20333;-60
2022/12/04 17:47:48;;;;;;;9.43;4.82;;;4.60;99.90;;;;;;10137183;28;20032;-60
2022/12/04 17:52:38;;;;;;;8.23;4.95;;;4.60;99.90;;;;;;10135580;28;20052;-59
2022/12/04 17:57:29;;;;;;;9.50;5.10;;;4.70;99.90;;;;;;10136549;28;20056;-60
2022/12/04 18:02:20;;;;;;;13.68;4.97;;;4.70;99.90;;;;;;10116433;28;20036;-61
2022/12/04 18:07:10;;;;;;;11.45;5.38;;;4.70;99.90;;;;;;10120744;28;20129;-61
2022/12/04 18:12:02;;;;;;;7.97;5.57;;;4.70;99.90;;;;;;10136494;28;20021;-61
2022/12/04 18:16:55;;;;;;;12.38;5.00;;;4.80;99.90;;;;;;10137286;28;20487;-61
2022/12/04 18:21:45;;;;;;;13.70;5.97;;;4.80;99.90;;;;;;10139573;28;20069;-59
2022/12/04 18:26:42;;;;;;;9.43;4.97;;;4.90;99.90;;;;;;10108507;28;20128;-61
2022/12/04 18:31:33;;;;;;;10.20;4.97;;;4.80;99.90;;;;;;10133599;28;20031;-60
2022/12/04 18:36:27;;;;;;;15.63;6.45;;;4.80;99.90;;;;;;10142243;28;20024;-61
2022/12/04 18:41:18;;;;;;;11.65;5.50;;;4.80;99.90;;;;;;10137224;28;20028;-59
2022/12/04 18:46:11;;;;;;;9.10;4.88;;;4.80;99.90;;;;;;10140141;28;20507;-63
2022/12/04 18:51:18;;;;;;;11.23;4.93;;;4.70;99.90;;;;;;10135379;28;20048;-61
2022/12/04 18:56:09;;;;;;;11.20;4.57;;;4.60;99.90;;;;;;10133809;28;20147;-59
2022/12/04 19:01:11;;;;;;;10.23;6.00;;;4.80;99.90;;;;;;10131691;28;20506;-63
2022/12/04 19:06:01;;;;;;;12.88;6.25;;;4.80;99.90;;;;;;10137773;28;20072;-62
2022/12/04 19:10:52;;;;;;;14.82;6.93;;;4.90;99.90;;;;;;10135845;28;20035;-60
2022/12/04 19:15:43;;;;;;;14.70;6.97;;;5.00;99.90;;;;;;10137022;28;20025;-59
2022/12/04 19:20:34;;;;;;;12.13;5.55;;;5.00;99.90;;;;;;10118333;28;20020;-60
2022/12/04 19:25:25;;;;;;;11.27;5.50;;;5.00;99.90;;;;;;10135592;28;20040;-63
2022/12/04 19:30:15;;;;;;;15.13;6.40;;;5.00;99.90;;;;;;10147904;28;20032;-61
2022/12/04 19:35:07;;;;;;;11.38;5.85;;;4.90;99.90;;;;;;10150140;28;20020;-62
2022/12/04 19:39:58;;;;;;;12.30;5.50;;;4.90;99.90;;;;;;10149729;28;20040;-60
2022/12/04 19:44:48;;;;;;;11.55;5.15;;;5.00;99.90;;;;;;10135613;28;20029;-62
2022/12/04 19:49:39;;;;;;;9.43;5.18;;;5.10;99.90;;;;;;10125839;28;20036;-60
2022/12/04 19:54:29;;;;;;;12.18;5.82;;;5.00;99.90;;;;;;10118333;28;20124;-63
2022/12/04 19:59:20;;;;;;;10.30;5.32;;;4.90;99.90;;;;;;10129541;28;20509;-61
2022/12/04 20:04:11;;;;;;;9.63;4.68;;;5.00;99.90;;;;;;10113412;28;20035;-61
2022/12/04 20:09:05;;;;;;;11.13;5.13;;;4.90;99.90;;;;;;10130951;28;20036;-61
2022/12/04 20:13:58;;;;;;;11.18;5.45;;;4.90;99.90;;;;;;10141137;28;20100;-61
2022/12/04 20:18:48;;;;;;;11.52;5.55;;;5.00;99.90;;;;;;10132324;28;20029;-60
2022/12/04 20:23:41;;;;;;;11.68;4.93;;;5.00;99.90;;;;;;10141731;28;20398;-61
2022/12/04 20:28:32;;;;;;;12.15;5.55;;;5.00;99.90;;;;;;10145099;28;20082;-62
2022/12/04 20:33:23;;;;;;;9.82;4.93;;;5.00;99.90;;;;;;10144549;28;20024;-61
2022/12/04 20:38:14;;;;;;;9.88;4.07;;;5.00;99.90;;;;;;10116537;28;20112;-62
2022/12/04 20:43:04;;;;;;;11.32;5.40;;;5.00;99.90;;;;;;10141371;28;20050;-62
2022/12/04 20:47:55;;;;;;;9.13;5.15;;;5.00;99.90;;;;;;10136972;28;20040;-62
2022/12/04 20:52:46;;;;;;;9.32;4.78;;;5.00;99.90;;;;;;10137171;28;20044;-61
2022/12/04 20:57:36;;;;;;;12.68;5.47;;;4.90;99.90;;;;;;10142031;28;20539;-62
2022/12/04 21:02:27;;;;;;;10.50;5.25;;;4.90;99.90;;;;;;10135263;28;20103;-61
2022/12/04 21:07:18;;;;;;;11.77;4.72;;;4.90;99.90;;;;;;10133731;28;20037;-62
2022/12/04 21:17:29;;;;;;;15.23;6.60;;;4.90;99.90;;;;;;10058286;28;20379;-61
2022/12/04 21:22:19;;;;;;;18.05;6.82;;;5.00;99.90;;;;;;10142386;28;20030;-62
2022/12/04 21:27:10;;;;;;;19.70;7.93;;;5.00;99.90;;;;;;10143057;28;20036;-62
2022/12/04 21:32:02;;;;;;;13.77;7.35;;;5.00;99.90;;;;;;10115366;28;20032;-63
2022/12/04 21:36:52;;;;;;;16.00;7.35;;;5.00;99.90;;;;;;10133086;28;20463;-60
2022/12/04 21:46:52;;;;;;;10.70;5.65;;;5.20;99.90;;;;;;10115750;28;20059;-60
2022/12/04 21:51:43;;;;;;;10.95;5.93;;;5.20;99.90;;;;;;10112879;28;20074;-62
2022/12/04 21:56:34;;;;;;;9.20;4.65;;;5.10;99.90;;;;;;10136835;28;20121;-61
2022/12/04 22:01:25;;;;;;;15.35;5.68;;;5.10;99.90;;;;;;10135026;28;20043;-60
2022/12/04 22:06:17;;;;;;;10.18;5.43;;;5.20;99.90;;;;;;10133081;28;20554;-60
2022/12/04 22:11:09;;;;;;;8.27;4.72;;;5.30;99.90;;;;;;10118999;28;20052;-61
2022/12/04 22:16:05;;;;;;;13.85;6.35;;;5.30;99.90;;;;;;10139040;28;20021;-61
2022/12/04 22:20:56;;;;;;;12.73;4.90;;;5.20;99.90;;;;;;10132346;28;20115;-59
2022/12/04 22:25:46;;;;;;;13.98;7.03;;;5.30;99.90;;;;;;10121443;28;20120;-60
2022/12/04 22:30:37;;;;;;;13.98;6.85;;;5.20;99.90;;;;;;10138824;28;20491;-61
2022/12/04 22:35:27;;;;;;;17.45;6.47;;;5.10;99.90;;;;;;10137608;28;20016;-61
2022/12/04 22:40:18;;;;;;;15.23;5.47;;;5.10;99.90;;;;;;10121294;28;20021;-60
2022/12/04 22:45:10;;;;;;;10.88;5.50;;;5.20;99.90;;;;;;10131163;28;20044;-61
2022/12/04 22:50:00;;;;;;;11.85;5.68;;;5.30;99.90;;;;;;10138166;28;20058;-61
2022/12/04 22:54:51;;;;;;;10.63;5.10;;;5.20;99.90;;;;;;10137160;28;20517;-60
2022/12/04 22:59:42;;;;;;;12.77;5.97;;;5.30;99.90;;;;;;10137384;28;20284;-62
2022/12/04 23:04:32;;;;;;;19.42;9.35;;;5.10;99.90;;;;;;10137346;28;20028;-60
2022/12/04 23:09:24;;;;;;;11.82;5.88;;;4.90;99.90;;;;;;10137115;28;20032;-60
2022/12/04 23:14:15;;;;;;;11.00;5.90;;;4.90;99.90;;;;;;10136157;28;20086;-60
2022/12/04 23:19:09;;;;;;;10.90;5.85;;;4.90;99.90;;;;;;10123116;28;20438;-60
2022/12/04 23:24:00;;;;;;;12.13;5.47;;;5.00;99.90;;;;;;10106228;28;20020;-60
2022/12/04 23:28:51;;;;;;;10.27;5.65;;;5.00;99.90;;;;;;10123021;28;20036;-61
2022/12/04 23:33:42;;;;;;;11.80;6.80;;;5.00;99.90;;;;;;10130956;28;20099;-60
2022/12/04 23:38:34;;;;;;;10.73;5.18;;;5.10;99.90;;;;;;10116370;28;20104;-60
2022/12/04 23:43:25;;;;;;;13.00;5.72;;;5.10;99.90;;;;;;10113398;28;20089;-61
2022/12/04 23:48:16;;;;;;;14.43;6.97;;;5.10;99.90;;;;;;10109988;28;20222;-61
2022/12/04 23:53:06;;;;;;;13.25;5.93;;;4.90;99.90;;;;;;10119247;28;20030;-60
2022/12/04 23:57:57;;;;;;;13.18;6.78;;;4.90;99.90;;;;;;10123203;28;20049;-59
